Date,TemperatureHighF,TemperatureAvgF,TemperatureLowF,DewpointHighF,DewpointAvgF,DewpointLowF,HumidityHigh,HumidityAvg,HumidityLow,PressureMaxIn,PressureMinIn,WindSpeedMaxMPH,WindSpeedAvgMPH,GustSpeedMaxMPH,PrecipitationSumIn
2012-7-20,80.9,71.7,60.5,56.0,53.4,51.0,79,54,41,30.46,30.02,15,4,0,0.00
2012-7-21,76.4,66.7,57.5,59.0,55.1,51.0,91,68,42,30.11,30.05,19,4,0,0.00
2012-7-22,79.2,72.1,62.7,60.5,57.4,48.0,82,60,47,30.10,30.03,28,9,0,0.00
2012-7-23,77.8,70.7,62.1,66.0,62.1,56.5,97,75,61,30.06,29.78,27,7,0,0.00
2012-7-24,77.2,69.2,62.0,71.3,65.4,59.5,98,88,73,29.77,29.48,21,5,0,0.10
2012-7-25,78.1,69.4,61.1,60.5,54.8,51.0,83,62,41,29.74,29.60,24,8,0,0.00
2012-7-26,69.8,64.2,60.4,62.0,57.2,51.0,100,79,53,29.74,29.64,13,3,0,0.00
2012-7-27,73.8,64.2,59.9,68.0,62.6,60.0,100,95,77,29.91,29.64,10,2,0,0.15
2012-7-28,74.5,65.9,60.7,68.5,62.4,60.0,99,89,62,30.02,29.91,15,4,0,0.00
2012-7-29,67.1,64.6,62.1,66.7,63.6,61.5,100,97,93,30.07,29.97,10,1,0,0.41
2012-7-30,80.6,67.6,59.0,66.0,60.9,58.0,100,81,56,30.09,30.03,25,5,0,0.00
2012-7-31,79.1,70.3,61.7,64.5,60.1,52.0,93,72,45,30.10,30.01,20,4,0,0.00
2012-8-1,79.5,66.7,60.9,66.7,63.0,60.0,100,89,60,30.01,29.82,20,5,0,0.69
2012-8-2,68.7,63.3,60.1,66.3,62.5,60.0,100,98,88,29.92,29.84,16,5,0,0.00
2012-8-3,84.1,67.2,58.9,67.5,62.8,59.0,100,88,55,30.05,29.88,16,4,0,0.00
2012-8-4,86.8,74.9,65.9,66.7,63.9,59.5,93,70,46,30.25,30.04,15,4,0,0.00
2012-8-5,80.5,68.7,60.8,73.3,66.4,60.5,100,93,79,30.24,29.90,30,6,0,0.02
2012-8-6,84.8,76.3,66.7,71.7,63.4,56.5,97,67,41,29.96,29.82,28,8,0,0.00
2012-8-7,81.5,70.8,62.6,59.5,56.5,52.0,80,62,42,29.99,29.92,17,4,0,0.00
2012-8-8,84.0,68.8,61.5,66.0,61.3,57.5,96,79,42,29.98,29.93,12,4,0,0.00
2012-8-9,78.4,69.3,63.5,68.0,64.0,61.0,97,84,64,30.00,29.58,15,3,0,0.00
2012-8-10,67.0,63.8,61.9,66.3,63.2,61.0,100,98,94,30.03,29.97,19,5,0,0.04
2012-8-11,66.3,63.8,61.2,66.3,63.8,61.0,100,100,98,30.00,29.88,23,5,0,0.34
2012-8-12,76.2,67.6,62.3,73.0,67.2,62.5,100,99,89,30.00,29.90,18,4,0,0.05
2012-8-13,82.9,69.2,62.8,72.0,66.2,63.0,100,91,66,29.92,29.77,15,4,0,0.00
2012-8-14,84.6,72.7,64.0,70.0,65.3,61.0,100,79,57,29.93,29.88,19,4,0,0.00
2012-8-15,83.1,71.9,63.9,67.5,64.2,59.0,97,79,46,29.94,29.90,18,4,0,0.00
2012-8-16,68.6,65.1,62.8,66.7,64.6,62.5,100,98,91,29.93,29.71,22,5,0,4.58
2012-8-17,79.8,69.9,64.5,67.0,63.4,57.5,97,81,56,29.81,29.73,20,6,0,0.00
2012-8-18,80.4,71.7,65.5,67.0,64.7,61.0,95,79,55,29.92,29.78,20,4,0,0.04
2012-8-19,78.8,67.0,63.3,63.0,61.6,57.5,96,84,52,29.97,29.90,16,4,0,0.09
2012-8-20,78.6,69.7,62.6,63.0,58.9,54.0,96,70,49,29.94,29.85,19,4,0,0.00
2012-8-21,81.4,69.0,61.7,63.5,60.7,57.5,96,76,48,30.07,29.90,13,3,0,0.00
2012-8-22,76.8,67.6,59.6,61.0,56.6,49.0,94,70,43,30.14,30.06,14,3,0,0.00
2012-8-23,81.4,67.6,58.7,65.0,60.1,56.0,100,80,45,30.12,30.02,25,4,0,0.00
2012-8-24,82.7,70.3,61.3,64.0,60.0,54.0,98,73,40,30.25,30.08,14,3,0,0.00
2012-8-25,68.1,64.5,59.4,64.0,60.5,57.5,95,87,70,30.36,30.25,17,4,0,0.00
2012-8-26,79.0,68.2,59.8,64.5,60.0,54.0,98,77,53,30.35,30.20,17,2,0,0.00
2012-8-27,80.9,71.2,62.1,66.7,61.2,53.5,92,72,53,30.20,29.88,28,5,0,0.00
2012-8-28,78.5,70.5,63.0,70.5,64.8,50.5,98,83,60,29.88,29.62,27,8,0,0.08
2012-8-29,76.5,66.0,56.3,53.5,49.6,44.0,70,56,42,29.88,29.77,27,10,0,0.00
2012-8-30,75.9,70.0,62.9,57.0,52.9,49.0,64,55,40,29.91,29.82,28,10,0,0.00
2012-8-31,81.0,73.1,69.6,65.0,58.2,53.0,84,60,40,29.82,29.68,27,12,0,0.00
2012-9-1,78.1,66.9,57.2,64.0,54.4,47.5,89,66,37,30.13,29.80,16,4,0,0.00
2012-9-2,65.0,58.7,53.5,59.5,55.6,51.0,98,90,77,30.19,30.12,14,2,0,0.07
2012-9-3,70.3,59.9,52.9,60.5,56.6,52.0,100,90,70,30.24,30.16,19,3,0,0.01
2012-9-4,74.5,65.6,57.3,62.0,59.3,57.0,99,81,62,30.16,29.97,18,4,0,0.11
2012-9-5,71.3,64.8,58.1,70.0,63.1,57.5,100,94,87,29.97,29.62,31,6,0,2.03
2012-9-6,73.9,65.4,60.0,60.5,59.2,57.5,95,81,60,29.89,29.82,15,4,0,0.00
2012-9-7,71.8,62.1,58.4,66.7,61.1,57.5,100,97,85,29.95,29.86,18,3,0,0.00
2012-9-8,73.1,66.2,58.9,69.7,64.9,59.0,100,96,85,29.95,29.67,28,6,0,0.01
2012-9-9,70.3,65.9,60.5,69.3,61.0,56.0,99,85,70,29.85,29.64,31,5,0,0.17
2012-9-10,68.4,61.4,54.5,57.5,52.9,49.0,90,74,58,29.92,29.80,25,8,0,0.00
2012-9-11,69.0,57.4,50.5,50.0,47.4,44.0,81,70,48,30.14,29.90,22,9,0,0.00
2012-9-12,75.5,68.6,61.1,54.0,49.7,46.0,74,52,42,30.33,30.29,15,3,0,0.00
2012-9-13,79.0,66.1,56.9,61.5,57.9,50.0,96,76,49,30.34,30.25,13,2,0,0.00
2012-9-14,70.3,63.2,58.4,64.0,61.3,58.0,100,94,80,30.26,30.10,14,4,0,0.00
2012-9-15,71.7,64.6,54.9,64.0,58.5,45.0,97,81,54,30.10,29.87,23,6,0,0.00
2012-9-16,65.1,56.5,49.5,46.0,41.9,38.0,82,60,38,30.01,29.90,29,10,0,0.00
2012-9-17,67.4,59.0,51.8,53.0,43.9,39.0,85,59,41,30.10,30.00,18,5,0,0.00
2012-9-18,68.7,62.4,54.0,62.0,57.7,51.0,97,85,67,30.10,29.88,28,6,0,0.00
2012-9-19,68.6,63.6,52.7,66.7,57.2,45.0,97,81,48,30.23,29.77,34,7,0,0.66
2012-9-20,69.4,54.7,46.5,49.0,45.0,39.0,88,71,43,30.30,30.18,17,4,0,0.00
2012-9-21,60.5,55.7,51.6,56.0,52.7,47.5,97,89,78,30.21,30.10,12,2,0,0.13
2012-9-22,67.3,60.0,55.7,64.5,59.7,55.0,100,99,90,30.10,29.87,13,3,0,0.04
2012-9-23,72.9,63.6,54.7,64.0,54.8,42.0,100,76,45,30.05,29.81,21,6,0,0.00
2012-9-24,64.7,55.2,49.6,50.5,44.5,40.0,84,68,48,30.13,30.04,11,4,0,0.00
2012-9-25,65.5,60.2,51.6,55.0,48.1,43.0,82,65,46,30.13,30.07,30,7,0,0.00
2012-9-26,65.2,63.2,60.9,61.5,58.2,54.0,91,84,76,30.13,29.96,29,7,0,0.01
2012-9-27,64.9,59.2,51.1,61.5,48.9,41.0,96,70,48,30.26,29.94,23,6,0,0.00
2012-9-28,57.2,51.4,44.9,50.5,45.4,40.0,94,80,62,30.30,30.16,14,4,0,0.29
2012-9-29,58.5,54.3,49.0,59.0,53.8,47.5,100,98,91,30.16,29.87,22,5,0,1.12
2012-9-30,61.1,58.2,55.1,61.0,57.9,55.0,100,99,92,29.94,29.59,27,3,0,1.77
2012-10-1,62.9,59.1,56.8,56.5,54.3,53.0,93,84,75,29.84,29.63,22,7,0,0.02
2012-10-2,70.5,62.9,56.3,57.5,55.1,53.0,90,76,57,30.04,29.84,22,9,0,0.00
2012-10-3,70.1,63.2,58.2,59.0,56.5,52.0,96,80,55,30.19,30.04,9,2,0,0.00
2012-10-4,63.2,57.7,52.2,59.0,52.9,50.0,97,84,76,30.23,30.05,17,4,0,0.27
2012-10-5,65.4,56.8,52.4,60.0,55.4,50.5,100,95,80,30.05,29.92,13,2,0,0.02
2012-10-6,66.8,61.2,54.2,62.0,58.8,49.0,100,92,81,29.92,29.69,31,6,0,0.24
2012-10-7,61.2,53.2,47.8,49.0,45.2,41.0,92,75,55,30.06,29.84,16,4,0,0.00
2012-10-8,58.4,50.2,45.0,48.0,42.8,37.0,96,78,48,30.38,30.00,22,5,0,0.36
2012-10-9,52.9,50.1,46.6,44.0,39.6,35.0,87,68,55,30.40,30.18,21,8,0,0.00
2012-10-10,60.4,52.8,48.7,60.0,51.7,44.0,100,96,81,30.18,29.58,27,5,0,0.47
2012-10-11,60.1,51.3,45.8,58.0,38.2,28.0,95,63,37,30.08,29.57,44,12,0,0.02
2012-10-12,54.8,48.7,38.2,45.0,36.9,28.0,86,64,50,30.24,29.91,34,10,0,0.09
2012-10-13,50.9,41.6,34.5,29.0,27.1,24.0,74,56,39,30.38,30.23,27,9,0,0.00
2012-10-14,54.0,48.3,41.1,52.0,44.0,28.0,97,86,50,30.32,29.97,16,2,0,0.24
2012-10-15,69.3,62.9,51.0,61.5,58.4,50.0,98,86,75,29.97,29.63,34,9,0,0.07
2012-10-16,64.2,53.6,44.2,61.5,50.6,36.0,100,89,73,29.79,29.45,32,8,0,0.31
2012-10-17,61.5,49.4,40.1,42.0,36.7,31.0,82,63,39,30.02,29.80,23,6,0,0.00
2012-10-18,58.6,49.9,42.6,52.0,46.3,39.0,97,88,65,30.21,30.02,14,3,0,0.00
2012-10-19,58.9,55.0,51.5,59.0,53.7,50.5,100,96,93,30.21,29.90,24,5,0,0.39
2012-10-20,64.4,61.2,58.2,63.5,60.9,57.0,100,99,94,29.90,29.65,28,6,0,1.27
2012-10-21,62.8,57.5,52.8,57.0,48.8,42.0,99,74,56,29.76,29.66,20,7,0,0.00
2012-10-22,57.9,53.3,49.9,45.0,41.6,38.0,76,65,51,29.90,29.74,36,12,0,0.00
2012-10-23,58.6,50.2,43.9,40.0,36.8,33.0,73,60,45,30.12,29.90,26,9,0,0.00
2012-10-24,62.4,48.3,39.2,39.0,34.4,31.0,79,60,32,30.26,30.11,17,4,0,0.00
2012-10-25,59.5,46.3,39.2,39.0,31.7,24.0,79,57,36,30.37,30.26,14,4,0,0.00
2012-10-26,60.4,49.4,40.3,50.5,45.4,37.0,97,86,69,30.29,30.15,13,3,0,0.00
2012-10-27,62.9,52.6,46.1,54.5,45.5,29.0,100,80,29,30.16,30.06,10,2,0,0.00
2012-10-28,58.0,51.2,46.4,52.0,48.0,44.0,98,89,74,30.12,29.95,24,9,0,0.01
2012-10-29,58.9,55.9,50.7,56.5,54.0,50.0,99,93,85,29.95,29.68,46,19,0,23.77
2012-10-30,60.4,58.7,57.6,60.5,58.4,56.0,100,99,93,29.82,29.61,51,12,0,18.17
2012-10-31,59.9,57.2,53.7,60.0,57.1,51.0,100,99,91,29.70,29.54,24,6,0,0.04
2012-11-1,54.5,51.7,47.7,53.0,48.6,44.0,95,89,81,29.59,29.51,13,3,0,0.00
2012-11-2,48.1,48.1,48.1,45.0,45.0,45.0,88,88,88,29.53,29.53,3,3,0,0.00
2012-11-3,48.1,48.1,48.1,45.0,45.0,45.0,88,88,88,29.53,29.53,3,3,0,0.00
2012-11-4,48.1,48.1,48.1,45.0,45.0,45.0,88,88,88,29.53,29.53,3,3,0,0.00
2012-11-5,63.5,42.7,31.7,45.0,37.1,21.0,88,80,34,30.05,29.53,22,4,0,2.02
2012-11-6,39.5,34.0,29.8,24.0,20.7,18.0,66,56,45,30.27,30.05,21,6,0,0.00
2012-11-7,38.4,34.9,31.9,35.0,24.1,18.0,98,64,47,30.28,29.91,32,15,0,0.30
2012-11-8,41.8,39.2,34.8,42.0,38.3,33.0,99,96,93,29.91,29.67,34,9,0,1.72
2012-11-9,46.1,40.9,38.5,40.0,36.6,29.0,98,84,65,30.00,29.67,26,6,0,0.00
2012-11-10,46.8,40.8,36.1,33.0,27.5,16.0,78,59,43,30.49,29.98,33,7,0,0.00
2012-11-11,53.3,44.2,31.5,50.0,35.7,16.0,91,72,44,30.56,30.44,20,4,0,0.00
2012-11-12,64.0,57.8,50.8,56.5,50.1,41.0,93,77,43,30.46,30.28,26,6,0,0.00
2012-11-13,61.2,53.1,41.5,59.0,50.5,35.0,97,91,76,30.42,30.13,34,6,0,0.37
2012-11-14,45.9,39.4,35.5,36.0,32.6,31.0,90,77,58,30.54,30.41,21,3,0,0.01
2012-11-15,40.7,37.6,35.0,35.0,32.2,31.0,87,80,71,30.50,30.30,25,9,0,0.00
2012-11-16,44.6,38.5,36.1,37.0,33.3,31.0,87,81,65,30.41,30.28,17,3,0,0.00
2012-11-17,42.4,37.4,34.4,35.0,29.6,23.0,90,74,59,30.69,30.41,16,2,0,0.00
2012-11-18,49.1,36.0,30.4,29.0,24.2,18.0,83,63,33,30.76,30.67,12,3,0,0.00
2012-11-19,46.4,38.1,31.5,38.0,33.2,28.0,95,81,65,30.67,30.28,13,3,0,0.00
2012-11-20,51.2,41.1,32.7,37.0,32.9,29.0,96,74,44,30.28,30.15,16,4,0,0.00
2012-11-21,48.2,41.7,36.2,42.0,37.5,32.0,95,85,68,30.30,30.20,14,5,0,0.00
2012-11-22,55.4,42.1,33.9,44.0,38.8,33.0,98,89,62,30.28,30.13,10,2,0,0.00
2012-11-23,53.3,48.7,45.0,47.0,44.4,42.0,92,85,73,30.13,29.68,17,4,0,0.00
2012-11-24,51.6,45.1,32.8,47.5,40.3,23.0,90,82,64,29.68,29.36,34,8,0,0.02
2012-11-25,33.7,31.6,28.1,24.0,17.9,14.0,70,55,43,29.73,29.42,41,16,0,0.04
2012-11-26,39.3,32.2,27.4,24.0,19.2,14.0,70,57,47,30.23,29.72,30,12,0,0.00
2012-11-27,34.5,30.1,24.5,26.0,20.0,16.0,77,64,54,30.35,30.22,16,4,0,0.00
2012-11-28,34.9,32.4,28.2,28.0,23.4,21.0,77,67,58,30.28,30.10,22,7,0,0.00
2012-11-29,39.2,32.6,26.9,31.0,22.1,14.0,85,64,41,30.15,30.03,38,10,0,0.00
2012-11-30,32.4,24.0,16.2,26.0,14.7,4.0,80,65,44,30.62,30.14,30,6,0,0.00
2012-12-1,38.9,24.2,17.2,35.0,16.3,11.0,97,69,47,30.73,30.57,18,5,0,0.06
2012-12-2,54.1,47.8,38.9,53.0,45.1,33.0,96,90,79,30.57,29.97,29,9,0,0.44
2012-12-3,51.4,45.9,38.9,49.0,42.1,35.0,95,86,72,30.33,29.94,31,8,0,0.09
2012-12-4,50.2,42.6,32.7,49.0,39.8,32.0,96,90,81,30.36,30.02,24,4,0,0.00
2012-12-5,55.1,47.6,34.4,54.0,43.0,26.0,97,84,65,30.02,29.77,33,7,0,0.31
2012-12-6,36.9,32.6,28.8,28.0,23.1,16.0,74,66,56,30.32,29.99,32,7,0,0.00
2012-12-7,45.4,37.1,25.0,42.0,30.0,16.0,95,75,61,30.32,30.06,15,4,0,0.10
2012-12-8,43.9,41.8,39.9,44.0,41.2,39.0,100,98,94,30.07,29.85,15,2,0,0.24
2012-12-9,44.3,40.1,34.2,44.0,34.7,26.0,100,81,65,30.36,29.88,21,8,0,0.00
2012-12-10,55.6,42.2,31.5,56.0,41.1,28.0,100,95,73,30.29,29.47,31,6,0,0.83
2012-12-11,43.8,38.0,27.5,44.0,34.8,24.0,100,88,78,30.13,29.50,25,5,0,0.02
2012-12-12,38.2,28.3,21.3,28.0,22.4,18.0,92,78,54,30.41,30.12,13,4,0,0.00
2012-12-13,44.1,34.8,29.2,33.0,27.1,23.0,93,73,56,30.46,30.27,13,4,0,0.00
2012-12-14,45.4,38.9,34.4,35.0,29.8,26.0,79,69,58,30.27,29.97,22,7,0,0.00
2012-12-15,35.5,25.8,16.9,29.0,18.1,11.0,79,70,57,30.41,30.08,26,3,0,0.02
2012-12-16,24.7,19.9,13.7,18.0,12.2,8.0,86,69,53,30.42,30.26,19,4,0,0.00
2012-12-17,43.2,34.2,24.3,38.0,29.0,16.0,86,80,69,30.28,30.00,29,12,0,0.00
2012-12-18,44.3,43.1,41.5,43.0,41.1,38.0,99,93,82,30.00,29.47,39,18,0,3.47
2012-12-19,43.9,38.3,34.2,43.0,37.3,33.0,98,96,92,30.00,29.43,30,10,0,0.38
2012-12-20,36.9,33.8,32.3,33.0,31.1,29.0,95,88,82,30.21,30.00,23,4,0,0.01
2012-12-21,51.3,42.9,32.5,51.0,41.0,29.0,99,92,83,30.13,29.13,49,14,0,11.98
2012-12-22,47.2,39.1,28.8,43.0,36.1,24.0,95,88,76,29.45,29.20,28,7,0,0.26
2012-12-23,31.7,27.8,23.2,24.0,18.1,16.0,81,65,52,29.78,29.45,34,12,0,0.00
2012-12-24,31.9,28.6,25.4,26.0,18.7,16.0,77,65,53,30.08,29.76,29,10,0,0.00
2012-12-25,32.3,26.7,20.6,24.0,20.2,14.0,87,74,62,30.20,30.04,16,4,0,0.00
2012-12-26,32.8,24.9,17.9,24.0,19.6,14.0,89,78,64,30.36,30.19,23,5,0,0.00
2012-12-27,37.9,32.2,25.5,35.0,31.1,21.0,100,95,78,30.21,29.43,36,16,0,3.13
2012-12-28,33.5,29.0,23.2,31.0,26.7,18.0,100,90,78,29.94,29.43,33,11,0,0.00
2012-12-29,30.1,24.9,20.9,28.0,22.0,16.0,99,87,80,30.02,29.43,28,8,0,0.00
2012-12-30,26.7,23.5,15.7,26.0,22.0,11.0,100,90,75,29.64,29.27,44,16,0,0.87
2012-12-31,30.7,23.5,15.3,24.0,16.9,8.0,80,72,61,29.84,29.63,44,14,0,0.43
2013-1-1,32.3,25.7,12.0,28.0,17.5,4.0,86,69,51,29.80,29.56,40,14,0,0.04